createdAt,value
2023-05-02T00:00:10.932Z,377.00
2023-05-02T00:01:10.944Z,379.00
2023-05-02T00:02:11.122Z,380.00
2023-05-02T00:03:10.998Z,379.00
2023-05-02T00:04:11.017Z,381.00
2023-05-02T00:05:10.899Z,382.00
2023-05-02T00:06:10.882Z,380.00
2023-05-02T00:07:10.921Z,379.00
2023-05-02T00:08:10.866Z,378.00
2023-05-02T00:09:10.877Z,379.00
2023-05-02T00:10:10.887Z,379.00
2023-05-02T00:11:10.867Z,380.00
2023-05-02T00:12:10.844Z,381.00
2023-05-02T00:13:10.818Z,384.00
2023-05-02T00:14:10.876Z,381.00
2023-05-02T00:15:10.820Z,382.00
2023-05-02T00:16:10.831Z,381.00
2023-05-02T00:17:10.886Z,381.00
2023-05-02T00:18:10.878Z,381.00
2023-05-02T00:19:10.823Z,382.00
2023-05-02T00:20:10.802Z,383.00
2023-05-02T00:21:10.753Z,383.00
2023-05-02T00:22:10.756Z,382.00
2023-05-02T00:23:10.766Z,381.00
2023-05-02T00:24:10.767Z,381.00
2023-05-02T00:25:10.761Z,383.00
2023-05-02T00:26:10.768Z,384.00
2023-05-02T00:27:10.753Z,384.00
2023-05-02T00:28:10.749Z,385.00
2023-05-02T00:29:10.712Z,387.00
2023-05-02T00:30:10.691Z,387.00
2023-05-02T00:31:10.831Z,386.00
2023-05-02T00:32:10.724Z,386.00
2023-05-02T00:33:10.712Z,384.00
2023-05-02T00:34:10.693Z,383.00
2023-05-02T00:35:10.777Z,385.00
2023-05-02T00:36:10.671Z,383.00
2023-05-02T00:37:10.634Z,384.00
2023-05-02T00:38:10.685Z,384.00
2023-05-02T00:39:10.671Z,384.00
2023-05-02T00:40:10.641Z,383.00
2023-05-02T00:41:10.636Z,385.00
2023-05-02T00:42:10.622Z,384.00
2023-05-02T00:43:10.621Z,383.00
2023-05-02T00:44:10.625Z,382.00
2023-05-02T00:45:10.605Z,380.00
2023-05-02T00:46:10.675Z,381.00
2023-05-02T00:47:10.604Z,379.00
2023-05-02T00:48:10.652Z,381.00
2023-05-02T00:49:10.589Z,379.00
2023-05-02T00:50:10.562Z,377.00
2023-05-02T00:51:10.553Z,376.00
2023-05-02T00:52:10.613Z,375.00
2023-05-02T00:53:10.573Z,374.00
2023-05-02T00:54:10.582Z,376.00
2023-05-02T00:55:10.705Z,375.00
2023-05-02T00:56:10.544Z,376.00
2023-05-02T00:57:10.573Z,375.00
2023-05-02T00:58:10.518Z,375.00
2023-05-02T00:59:10.519Z,376.00
2023-05-02T01:00:10.484Z,377.00
2023-05-02T01:01:10.536Z,378.00
2023-05-02T01:02:10.607Z,379.00
2023-05-02T01:03:10.519Z,378.00
2023-05-02T01:04:10.635Z,377.00
2023-05-02T01:05:10.499Z,376.00
2023-05-02T01:06:10.543Z,375.00
2023-05-02T01:07:10.479Z,374.00
2023-05-02T01:08:10.438Z,375.00
2023-05-02T01:09:10.455Z,375.00
2023-05-02T01:10:10.466Z,375.00
2023-05-02T01:11:10.442Z,376.00
2023-05-02T01:12:10.474Z,377.00
2023-05-02T01:13:10.452Z,377.00
2023-05-02T01:14:10.607Z,376.00
2023-05-02T01:15:10.434Z,379.00
2023-05-02T01:16:10.430Z,381.00
2023-05-02T01:17:10.428Z,381.00
2023-05-02T01:18:10.403Z,380.00
2023-05-02T01:19:10.388Z,381.00
2023-05-02T01:20:10.402Z,380.00
2023-05-02T01:21:10.354Z,379.00
2023-05-02T01:22:10.370Z,374.00
2023-05-02T01:23:10.367Z,372.00
2023-05-02T01:24:10.371Z,372.00
2023-05-02T01:25:10.370Z,372.00
2023-05-02T01:26:10.321Z,374.00
2023-05-02T01:27:10.353Z,376.00
2023-05-02T01:28:10.355Z,375.00
2023-05-02T01:29:10.313Z,374.00
2023-05-02T01:30:10.327Z,374.00
2023-05-02T01:31:10.418Z,375.00
2023-05-02T01:32:10.299Z,374.00
2023-05-02T01:33:10.312Z,371.00
2023-05-02T01:34:10.322Z,370.00
2023-05-02T01:35:10.349Z,372.00
2023-05-02T01:36:10.241Z,373.00
2023-05-02T01:37:10.318Z,374.00
2023-05-02T01:38:10.310Z,373.00
2023-05-02T01:39:10.338Z,375.00
2023-05-02T01:40:10.343Z,372.00
2023-05-02T01:41:10.336Z,371.00
2023-05-02T01:42:10.347Z,372.00
2023-05-02T01:43:10.360Z,371.00
2023-05-02T01:44:10.374Z,370.00
2023-05-02T01:45:10.402Z,371.00
2023-05-02T01:46:10.456Z,372.00
2023-05-02T01:47:10.442Z,373.00
2023-05-02T01:48:10.512Z,376.00
2023-05-02T01:49:10.449Z,376.00
2023-05-02T01:50:10.534Z,377.00
2023-05-02T01:51:10.496Z,375.00
2023-05-02T01:52:10.512Z,375.00
2023-05-02T01:53:10.545Z,375.00
2023-05-02T01:54:10.526Z,373.00
2023-05-02T01:55:10.542Z,372.00
2023-05-02T01:56:10.613Z,370.00
2023-05-02T01:57:10.570Z,370.00
2023-05-02T01:58:10.573Z,370.00
2023-05-02T01:59:10.626Z,372.00
2023-05-02T02:00:10.636Z,371.00
2023-05-02T02:01:10.675Z,374.00
2023-05-02T02:02:10.641Z,374.00
2023-05-02T02:03:10.743Z,374.00
2023-05-02T02:04:10.747Z,375.00
2023-05-02T02:05:10.723Z,377.00
2023-05-02T02:06:10.746Z,377.00
2023-05-02T02:07:10.735Z,378.00
2023-05-02T02:08:10.736Z,379.00
2023-05-02T02:09:10.742Z,379.00
2023-05-02T02:10:10.780Z,377.00
2023-05-02T02:11:10.807Z,379.00
2023-05-02T02:12:10.800Z,381.00
2023-05-02T02:13:10.824Z,384.00
2023-05-02T02:14:10.816Z,382.00
2023-05-02T02:15:10.877Z,379.00
2023-05-02T02:16:10.922Z,379.00
2023-05-02T02:17:10.947Z,380.00
2023-05-02T02:18:10.983Z,380.00
2023-05-02T02:19:10.926Z,382.00
2023-05-02T02:20:10.964Z,381.00
2023-05-02T02:21:10.978Z,379.00
2023-05-02T02:22:10.982Z,376.00
2023-05-02T02:23:11.004Z,379.00
2023-05-02T02:24:10.996Z,380.00
2023-05-02T02:25:11.028Z,380.00
2023-05-02T02:26:11.079Z,378.00
2023-05-02T02:27:11.078Z,377.00
2023-05-02T02:28:11.077Z,377.00
2023-05-02T02:29:11.088Z,379.00
2023-05-02T02:30:11.091Z,380.00
2023-05-02T02:31:11.178Z,379.00
2023-05-02T02:32:11.117Z,381.00
2023-05-02T02:33:11.223Z,381.00
2023-05-02T02:34:11.175Z,380.00
2023-05-02T02:35:11.169Z,379.00
2023-05-02T02:36:11.242Z,378.00
2023-05-02T02:37:11.220Z,377.00
2023-05-02T02:38:11.237Z,378.00
2023-05-02T02:39:11.259Z,378.00
2023-05-02T02:40:11.264Z,378.00
2023-05-02T02:41:11.369Z,378.00
2023-05-02T02:42:11.306Z,378.00
2023-05-02T02:43:11.326Z,379.00
2023-05-02T02:44:13.434Z,377.00
2023-05-02T02:45:11.345Z,379.00
2023-05-02T02:46:11.471Z,377.00
2023-05-02T02:47:11.422Z,379.00
2023-05-02T02:48:11.482Z,380.00
2023-05-02T02:49:11.430Z,382.00
2023-05-02T02:50:11.440Z,385.00
2023-05-02T02:51:11.446Z,386.00
2023-05-02T02:52:11.468Z,387.00
2023-05-02T02:53:11.507Z,388.00
2023-05-02T02:54:25.401Z,388.00
2023-05-02T02:55:12.495Z,389.00
2023-05-02T02:56:11.527Z,387.00
2023-05-02T02:57:11.492Z,386.00
2023-05-02T02:58:11.452Z,386.00
2023-05-02T02:59:11.452Z,386.00
2023-05-02T03:00:11.497Z,385.00
2023-05-02T03:01:11.494Z,384.00
2023-05-02T03:02:11.517Z,384.00
2023-05-02T03:03:11.489Z,382.00
2023-05-02T03:04:11.468Z,380.00
2023-05-02T03:05:11.442Z,381.00
2023-05-02T03:06:11.478Z,382.00
2023-05-02T03:07:11.419Z,380.00
2023-05-02T03:08:11.610Z,380.00
2023-05-02T03:09:11.413Z,378.00
2023-05-02T03:10:11.419Z,378.00
2023-05-02T03:11:11.417Z,378.00
2023-05-02T03:12:11.384Z,380.00
2023-05-02T03:13:11.386Z,380.00
2023-05-02T03:14:11.393Z,380.00
2023-05-02T03:15:11.376Z,381.00
2023-05-02T03:16:11.392Z,381.00
2023-05-02T03:17:11.347Z,379.00
2023-05-02T03:18:11.466Z,380.00
2023-05-02T03:19:11.384Z,381.00
2023-05-02T03:20:11.431Z,380.00
2023-05-02T03:21:11.470Z,379.00
2023-05-02T03:22:11.514Z,378.00
2023-05-02T03:23:11.556Z,380.00
2023-05-02T03:24:11.577Z,380.00
2023-05-02T03:25:11.621Z,380.00
2023-05-02T03:26:11.617Z,376.00
2023-05-02T03:27:11.698Z,371.00
2023-05-02T03:28:11.667Z,370.00
2023-05-02T03:29:11.751Z,371.00
2023-05-02T03:30:11.748Z,373.00
2023-05-02T03:31:11.824Z,372.00
2023-05-02T03:32:11.974Z,375.00
2023-05-02T03:33:11.869Z,373.00
2023-05-02T03:34:11.982Z,376.00
2023-05-02T03:35:11.957Z,377.00
2023-05-02T03:36:11.954Z,376.00
2023-05-02T03:37:11.971Z,377.00
2023-05-02T03:38:12.006Z,375.00
2023-05-02T03:39:12.020Z,373.00
2023-05-02T03:40:12.195Z,374.00
2023-05-02T03:41:12.135Z,374.00
2023-05-02T03:42:12.329Z,377.00
2023-05-02T03:43:12.170Z,376.00
2023-05-02T03:44:12.219Z,375.00
2023-05-02T03:45:12.241Z,373.00
2023-05-02T03:46:12.319Z,373.00
2023-05-02T03:47:12.297Z,375.00
2023-05-02T03:48:12.324Z,375.00
2023-05-02T03:49:12.349Z,375.00
2023-05-02T03:50:12.400Z,376.00
2023-05-02T03:51:12.408Z,376.00
2023-05-02T03:52:12.474Z,377.00
2023-05-02T03:53:12.490Z,378.00
2023-05-02T03:54:12.488Z,377.00
2023-05-02T03:55:12.549Z,376.00
2023-05-02T03:56:12.593Z,375.00
2023-05-02T03:57:12.613Z,377.00
2023-05-02T03:58:12.648Z,376.00
2023-05-02T03:59:12.694Z,374.00
2023-05-02T04:00:12.757Z,375.00
2023-05-02T04:01:12.743Z,373.00
2023-05-02T04:02:12.818Z,373.00
2023-05-02T04:03:12.878Z,373.00
2023-05-02T04:04:12.867Z,372.00
2023-05-02T04:05:12.866Z,372.00
2023-05-02T04:06:13.071Z,370.00
2023-05-02T04:07:12.942Z,373.00
2023-05-02T04:08:12.993Z,373.00
2023-05-02T04:09:13.026Z,376.00
2023-05-02T04:10:13.092Z,377.00
2023-05-02T04:11:13.040Z,374.00
2023-05-02T04:12:13.141Z,376.00
2023-05-02T04:13:13.126Z,377.00
2023-05-02T04:14:13.148Z,377.00
2023-05-02T04:15:13.184Z,376.00
2023-05-02T04:16:13.232Z,375.00
2023-05-02T04:17:13.306Z,375.00
2023-05-02T04:18:13.283Z,377.00
2023-05-02T04:19:13.320Z,380.00
2023-05-02T04:20:13.340Z,379.00
2023-05-02T04:21:13.356Z,379.00
2023-05-02T04:22:13.420Z,379.00
2023-05-02T04:23:13.414Z,377.00
2023-05-02T04:24:13.456Z,376.00
2023-05-02T04:25:13.463Z,376.00
2023-05-02T04:26:13.539Z,378.00
2023-05-02T04:27:15.315Z,380.00
2023-05-02T04:28:13.522Z,382.00
2023-05-02T04:29:13.600Z,381.00
2023-05-02T04:30:13.591Z,382.00
2023-05-02T04:31:13.729Z,382.00
2023-05-02T04:32:13.647Z,381.00
2023-05-02T04:33:13.745Z,379.00
2023-05-02T04:34:13.726Z,379.00
2023-05-02T04:35:13.787Z,380.00
2023-05-02T04:36:13.799Z,378.00
2023-05-02T04:37:13.846Z,379.00
2023-05-02T04:38:13.853Z,379.00
2023-05-02T04:39:13.919Z,380.00
2023-05-02T04:40:13.935Z,381.00
2023-05-02T04:41:13.989Z,384.00
2023-05-02T04:42:13.982Z,382.00
2023-05-02T04:43:13.985Z,382.00
2023-05-02T04:44:14.057Z,383.00
2023-05-02T04:45:14.102Z,384.00
2023-05-02T04:46:14.121Z,383.00
2023-05-02T04:47:14.187Z,379.00
2023-05-02T04:48:14.241Z,379.00
2023-05-02T04:49:14.193Z,378.00
2023-05-02T04:50:14.214Z,380.00
2023-05-02T04:51:16.795Z,378.00
2023-05-02T04:52:14.253Z,376.00
2023-05-02T04:53:14.259Z,377.00
2023-05-02T04:54:14.224Z,377.00
2023-05-02T04:55:14.238Z,378.00
2023-05-02T04:56:14.250Z,377.00
2023-05-02T04:57:14.245Z,376.00
2023-05-02T04:58:14.273Z,376.00
2023-05-02T04:59:14.203Z,378.00
2023-05-02T05:00:14.204Z,376.00
2023-05-02T05:01:14.288Z,378.00
2023-05-02T05:02:14.347Z,376.00
2023-05-02T05:03:14.236Z,377.00
2023-05-02T05:04:14.374Z,379.00
2023-05-02T05:05:14.259Z,377.00
2023-05-02T05:06:14.217Z,374.00
2023-05-02T05:07:14.412Z,375.00
2023-05-02T05:08:14.175Z,379.00
2023-05-02T05:09:14.181Z,378.00
2023-05-02T05:10:14.140Z,379.00
2023-05-02T05:11:14.153Z,380.00
2023-05-02T05:12:14.141Z,383.00
2023-05-02T05:13:14.179Z,382.00
2023-05-02T05:14:14.098Z,383.00
2023-05-02T05:15:14.104Z,384.00
2023-05-02T05:16:14.148Z,385.00
2023-05-02T05:17:14.090Z,383.00
2023-05-02T05:18:14.210Z,382.00
2023-05-02T05:19:14.089Z,384.00
2023-05-02T05:20:14.101Z,382.00
2023-05-02T05:21:14.109Z,382.00
2023-05-02T05:22:14.054Z,381.00
2023-05-02T05:23:14.058Z,380.00
2023-05-02T05:24:14.061Z,381.00
2023-05-02T05:25:14.072Z,379.00
2023-05-02T05:26:14.054Z,379.00
2023-05-02T05:27:14.048Z,381.00
2023-05-02T05:28:14.046Z,382.00
2023-05-02T05:29:14.060Z,383.00
2023-05-02T05:30:14.009Z,382.00
2023-05-02T05:31:16.598Z,387.00
2023-05-02T05:32:14.244Z,407.00
2023-05-02T05:33:14.059Z,439.00
2023-05-02T05:34:14.131Z,449.00
2023-05-02T05:35:13.974Z,459.00
2023-05-02T05:36:14.025Z,470.00
2023-05-02T05:37:13.978Z,486.00
2023-05-02T05:38:14.014Z,500.00
2023-05-02T05:39:13.989Z,526.00
2023-05-02T05:40:13.969Z,535.00
2023-05-02T05:41:13.976Z,545.00
2023-05-02T05:42:13.942Z,555.00
2023-05-02T05:43:13.951Z,602.00
2023-05-02T05:44:13.963Z,619.00
2023-05-02T05:45:13.966Z,620.00
2023-05-02T05:46:13.900Z,621.00
2023-05-02T05:47:13.972Z,700.00
2023-05-02T05:48:13.958Z,724.00
2023-05-02T05:49:13.903Z,733.00
2023-05-02T05:50:13.915Z,745.00
2023-05-02T05:51:13.904Z,740.00
2023-05-02T05:52:13.915Z,802.00
2023-05-02T05:53:13.868Z,820.00
2023-05-02T05:54:13.850Z,870.00
2023-05-02T05:55:13.888Z,889.00
2023-05-02T05:56:13.883Z,900.00
2023-05-02T05:57:13.882Z,911.00
2023-05-02T05:58:13.841Z,924.00
2023-05-02T05:59:13.855Z,976.00
2023-05-02T06:00:13.870Z,979.00
2023-05-02T06:01:13.843Z,978.00
2023-05-02T06:02:13.834Z,985.00
2023-05-02T06:03:13.949Z,997.00
2023-05-02T06:04:14.116Z,1018.00
2023-05-02T06:05:13.834Z,1071.00
2023-05-02T06:06:13.829Z,1087.00
2023-05-02T06:07:14.161Z,1099.00
2023-05-02T06:08:13.740Z,1116.00
2023-05-02T06:09:13.761Z,1172.00
2023-05-02T06:10:14.175Z,1203.00
2023-05-02T06:11:13.742Z,1192.00
2023-05-02T06:12:14.188Z,1185.00
2023-05-02T06:13:13.752Z,1189.00
2023-05-02T06:14:13.757Z,1197.00
2023-05-02T06:15:13.716Z,1227.00
2023-05-02T06:16:13.754Z,1237.00
2023-05-02T06:17:13.713Z,1244.00
2023-05-02T06:18:13.805Z,1276.00
2023-05-02T06:19:13.713Z,1286.00
2023-05-02T06:20:13.687Z,1289.00
2023-05-02T06:21:13.643Z,1300.00
2023-05-02T06:22:13.671Z,1347.00
2023-05-02T06:23:13.671Z,1354.00
2023-05-02T06:24:13.718Z,1358.00
2023-05-02T06:25:13.830Z,1358.00
2023-05-02T06:26:13.877Z,1367.00
2023-05-02T06:27:13.912Z,1386.00
2023-05-02T06:28:13.941Z,1398.00
2023-05-02T06:29:13.985Z,1416.00
2023-05-02T06:30:14.090Z,1423.00
2023-05-02T06:31:14.197Z,1432.00
2023-05-02T06:32:14.319Z,1430.00
2023-05-02T06:33:14.316Z,1437.00
2023-05-02T06:34:14.325Z,1444.00
2023-05-02T06:35:14.409Z,1457.00
2023-05-02T06:36:14.464Z,1467.00
2023-05-02T06:37:14.679Z,1116.00
2023-05-02T06:38:14.782Z,1058.00
2023-05-02T06:39:14.570Z,943.00
2023-05-02T06:40:14.781Z,937.00
2023-05-02T06:41:17.272Z,903.00
2023-05-02T06:42:15.181Z,883.00
2023-05-02T06:43:14.777Z,1022.00
2023-05-02T06:44:14.663Z,1047.00
2023-05-02T06:45:14.640Z,1068.00
2023-05-02T06:46:14.710Z,1088.00
2023-05-02T06:47:14.746Z,1147.00
2023-05-02T06:48:14.704Z,1211.00
2023-05-02T06:49:14.615Z,1217.00
2023-05-02T06:50:14.569Z,1227.00
2023-05-02T06:51:14.618Z,1230.00
2023-05-02T06:52:14.611Z,1260.00
2023-05-02T06:53:14.561Z,1278.00
2023-05-02T06:54:14.595Z,1301.00
2023-05-02T06:55:14.536Z,1303.00
2023-05-02T06:56:14.665Z,1331.00
2023-05-02T06:57:14.561Z,1339.00
2023-05-02T06:58:14.567Z,1329.00
2023-05-02T06:59:14.652Z,1338.00
2023-05-02T07:00:14.550Z,1349.00
2023-05-02T07:01:14.589Z,1368.00
2023-05-02T07:02:14.538Z,1379.00
2023-05-02T07:03:14.502Z,1401.00
2023-05-02T07:04:14.641Z,1427.00
2023-05-02T07:05:14.473Z,1431.00
2023-05-02T07:06:14.521Z,1436.00
2023-05-02T07:07:14.530Z,1446.00
2023-05-02T07:08:14.517Z,1509.00
2023-05-02T07:09:14.545Z,1497.00
2023-05-02T07:10:14.679Z,1493.00
2023-05-02T07:11:14.446Z,1505.00
2023-05-02T07:12:14.461Z,1522.00
2023-05-02T07:13:14.464Z,1540.00
2023-05-02T07:14:14.728Z,1552.00
2023-05-02T07:15:14.410Z,1559.00
2023-05-02T07:16:14.694Z,1576.00
2023-05-02T07:17:14.686Z,1605.00
2023-05-02T07:18:14.737Z,1603.00
2023-05-02T07:19:14.733Z,1598.00
2023-05-02T07:20:14.469Z,1649.00
2023-05-02T07:21:14.483Z,1667.00
2023-05-02T07:22:14.433Z,1679.00
2023-05-02T07:23:14.669Z,1680.00
2023-05-02T07:24:14.704Z,1685.00
2023-05-02T07:25:14.383Z,1692.00
2023-05-02T07:26:14.430Z,1697.00
2023-05-02T07:27:14.383Z,1694.00
2023-05-02T07:28:14.663Z,1627.00
2023-05-02T07:29:14.779Z,1673.00
2023-05-02T07:30:14.690Z,1688.00
2023-05-02T07:31:14.507Z,1674.00
2023-05-02T07:32:14.614Z,1696.00
2023-05-02T07:33:14.538Z,1695.00
2023-05-02T07:34:14.622Z,1171.00
2023-05-02T07:35:14.568Z,900.00
2023-05-02T07:36:14.626Z,813.00
2023-05-02T07:37:14.764Z,826.00
2023-05-02T07:38:14.980Z,973.00
2023-05-02T07:39:14.916Z,1026.00
2023-05-02T07:40:14.758Z,1051.00
2023-05-02T07:41:14.677Z,1072.00
2023-05-02T07:42:15.286Z,1097.00
2023-05-02T07:43:14.781Z,1129.00
2023-05-02T07:44:14.824Z,1215.00
2023-05-02T07:45:14.850Z,1229.00
2023-05-02T07:46:15.126Z,1234.00
2023-05-02T07:47:15.208Z,1237.00
2023-05-02T07:48:15.021Z,1270.00
2023-05-02T07:49:15.253Z,1306.00
2023-05-02T07:50:14.967Z,1307.00
2023-05-02T07:51:14.960Z,1307.00
2023-05-02T07:52:15.044Z,1308.00
2023-05-02T07:53:15.071Z,1314.00
2023-05-02T07:54:15.162Z,1411.00
2023-05-02T07:55:15.263Z,1417.00
2023-05-02T07:56:15.270Z,1424.00
2023-05-02T07:57:15.318Z,1407.00
2023-05-02T07:58:18.636Z,1416.00
2023-05-02T07:59:15.343Z,1425.00
2023-05-02T08:00:15.446Z,1427.00
2023-05-02T08:01:15.673Z,1439.00
2023-05-02T08:02:15.350Z,1450.00
2023-05-02T08:03:15.441Z,1468.00
2023-05-02T08:04:15.959Z,1511.00
2023-05-02T08:05:15.505Z,1500.00
2023-05-02T08:06:15.298Z,1274.00
2023-05-02T08:07:17.211Z,1210.00
2023-05-02T08:08:15.285Z,1187.00
2023-05-02T08:09:16.218Z,1052.00
2023-05-02T08:10:15.266Z,1060.00
2023-05-02T08:11:15.274Z,1068.00
2023-05-02T08:12:15.313Z,999.00
2023-05-02T08:13:15.313Z,987.00
2023-05-02T08:14:15.235Z,987.00
2023-05-02T08:15:15.249Z,992.00
2023-05-02T08:16:15.306Z,990.00
2023-05-02T08:17:15.317Z,920.00
2023-05-02T08:18:15.285Z,917.00
2023-05-02T08:19:15.764Z,920.00
2023-05-02T08:20:15.239Z,920.00
2023-05-02T08:21:15.227Z,912.00
2023-05-02T08:22:15.310Z,870.00
2023-05-02T08:23:15.347Z,864.00
2023-05-02T08:24:15.210Z,873.00
2023-05-02T08:25:15.196Z,876.00
2023-05-02T08:26:15.408Z,883.00
2023-05-02T08:27:15.282Z,1029.00
2023-05-02T08:28:15.305Z,1009.00
2023-05-02T08:29:15.723Z,1018.00
2023-05-02T08:30:21.283Z,967.00
2023-05-02T08:31:15.280Z,894.00
2023-05-02T08:32:15.356Z,882.00
2023-05-02T08:33:15.242Z,815.00
2023-05-02T08:34:15.412Z,713.00
2023-05-02T08:35:15.370Z,678.00
2023-05-02T08:36:15.291Z,653.00
2023-05-02T08:37:15.241Z,630.00
2023-05-02T08:38:15.407Z,612.00
2023-05-02T08:39:15.222Z,591.00
2023-05-02T08:40:15.194Z,596.00
2023-05-02T08:41:15.210Z,604.00
2023-05-02T08:42:15.219Z,641.00
2023-05-02T08:43:15.247Z,677.00
2023-05-02T08:44:15.146Z,718.00
2023-05-02T08:45:16.776Z,740.00
2023-05-02T08:46:15.276Z,752.00
2023-05-02T08:47:15.306Z,767.00
2023-05-02T08:48:15.185Z,805.00
2023-05-02T08:49:15.154Z,825.00
2023-05-02T08:50:15.130Z,837.00
2023-05-02T08:51:15.149Z,843.00
2023-05-02T08:52:15.147Z,869.00
2023-05-02T08:53:15.102Z,893.00
2023-05-02T08:54:15.155Z,902.00
2023-05-02T08:55:15.222Z,915.00
2023-05-02T08:56:15.322Z,931.00
2023-05-02T08:57:15.188Z,945.00
2023-05-02T08:58:16.318Z,964.00
2023-05-02T08:59:15.328Z,1005.00
2023-05-02T09:00:15.335Z,1047.00
2023-05-02T09:01:15.630Z,1078.00
2023-05-02T09:02:15.449Z,1090.00
2023-05-02T09:03:15.527Z,1106.00
2023-05-02T09:04:15.802Z,1150.00
2023-05-02T09:05:15.691Z,1173.00
2023-05-02T09:06:15.670Z,1166.00
2023-05-02T09:07:15.822Z,1156.00
2023-05-02T09:08:15.767Z,1157.00
2023-05-02T09:09:17.118Z,1170.00
2023-05-02T09:10:15.704Z,1179.00
2023-05-02T09:11:15.681Z,1193.00
2023-05-02T09:12:15.708Z,1213.00
2023-05-02T09:13:15.743Z,1240.00
2023-05-02T09:14:15.724Z,1252.00
2023-05-02T09:15:18.241Z,1249.00
2023-05-02T09:16:15.770Z,1061.00
2023-05-02T09:17:15.787Z,1183.00
2023-05-02T09:18:15.653Z,1255.00
2023-05-02T09:19:15.664Z,1199.00
2023-05-02T09:20:15.698Z,1266.00
2023-05-02T09:21:17.920Z,1261.00
2023-05-02T09:22:15.609Z,1265.00
2023-05-02T09:23:15.677Z,1270.00
2023-05-02T09:24:15.592Z,1278.00
2023-05-02T09:25:15.598Z,1334.00
2023-05-02T09:26:15.648Z,1331.00
2023-05-02T09:27:15.706Z,1325.00
2023-05-02T09:28:15.737Z,1328.00
2023-05-02T09:29:15.611Z,1300.00
2023-05-02T09:30:15.873Z,1155.00
2023-05-02T09:31:18.739Z,975.00
2023-05-02T09:32:16.855Z,912.00
2023-05-02T09:33:16.969Z,906.00
2023-05-02T09:34:15.771Z,917.00
2023-05-02T09:35:15.642Z,926.00
2023-05-02T09:36:15.605Z,942.00
2023-05-02T09:37:15.551Z,952.00
2023-05-02T09:38:15.496Z,1008.00
2023-05-02T09:39:15.523Z,1005.00
2023-05-02T09:40:15.781Z,991.00
2023-05-02T09:41:15.552Z,1022.00
2023-05-02T09:42:15.616Z,1051.00
2023-05-02T09:43:15.714Z,1063.00
2023-05-02T09:44:15.696Z,1069.00
2023-05-02T09:45:15.707Z,1073.00
2023-05-02T09:46:15.828Z,1094.00
2023-05-02T09:47:15.860Z,1143.00
2023-05-02T09:48:16.294Z,1141.00
2023-05-02T09:49:15.970Z,1144.00
2023-05-02T09:50:15.904Z,1138.00
2023-05-02T09:51:15.998Z,1131.00
2023-05-02T09:52:16.000Z,1122.00
2023-05-02T09:53:16.204Z,1115.00
2023-05-02T09:54:15.975Z,1111.00
2023-05-02T09:55:16.021Z,1109.00
2023-05-02T09:56:16.034Z,1105.00
2023-05-02T09:57:16.018Z,1104.00
2023-05-02T09:58:16.093Z,1101.00
2023-05-02T09:59:16.168Z,1095.00
2023-05-02T10:00:16.149Z,1093.00
2023-05-02T10:01:16.131Z,1087.00
2023-05-02T10:02:16.131Z,1085.00
2023-05-02T10:03:16.323Z,1079.00
2023-05-02T10:04:16.302Z,1076.00
2023-05-02T10:05:16.248Z,1072.00
2023-05-02T10:06:16.283Z,1066.00
2023-05-02T10:07:16.238Z,1063.00
2023-05-02T10:08:16.258Z,1058.00
2023-05-02T10:09:20.560Z,1053.00
2023-05-02T10:10:17.290Z,1050.00
2023-05-02T10:11:16.238Z,1050.00
2023-05-02T10:12:16.235Z,1050.00
2023-05-02T10:13:16.202Z,1049.00
2023-05-02T10:14:16.212Z,1048.00
2023-05-02T10:15:16.215Z,1044.00
2023-05-02T10:16:16.281Z,1042.00
2023-05-02T10:17:16.198Z,1041.00
2023-05-02T10:18:16.211Z,1035.00
2023-05-02T10:19:16.237Z,1033.00
2023-05-02T10:20:16.352Z,1028.00
2023-05-02T10:21:16.214Z,1029.00
2023-05-02T10:22:16.193Z,1030.00
2023-05-02T10:23:16.223Z,1030.00
2023-05-02T10:24:16.178Z,1027.00
2023-05-02T10:25:16.115Z,1018.00
2023-05-02T10:26:16.183Z,1021.00
2023-05-02T10:27:16.310Z,1024.00
2023-05-02T10:28:16.159Z,1024.00
2023-05-02T10:29:16.144Z,1023.00
2023-05-02T10:30:16.192Z,1021.00
2023-05-02T10:31:16.184Z,1019.00
2023-05-02T10:32:16.139Z,1016.00
2023-05-02T10:33:16.137Z,1014.00
2023-05-02T10:34:16.071Z,1011.00
2023-05-02T10:35:16.159Z,1009.00
2023-05-02T10:36:16.087Z,1007.00
2023-05-02T10:37:16.163Z,1004.00
2023-05-02T10:38:16.105Z,1003.00
2023-05-02T10:39:16.121Z,1003.00
2023-05-02T10:40:16.158Z,1000.00
2023-05-02T10:41:16.178Z,997.00
2023-05-02T10:42:16.144Z,993.00
2023-05-02T10:43:16.138Z,990.00
2023-05-02T10:44:16.141Z,985.00
2023-05-02T10:45:16.172Z,984.00
2023-05-02T10:46:16.253Z,981.00
2023-05-02T10:47:16.283Z,978.00
2023-05-02T10:48:16.205Z,975.00
2023-05-02T10:49:16.290Z,974.00
2023-05-02T10:50:16.213Z,972.00
2023-05-02T10:51:16.266Z,973.00
2023-05-02T10:52:16.303Z,972.00
2023-05-02T10:53:16.318Z,970.00
2023-05-02T10:54:16.318Z,971.00
2023-05-02T10:55:16.402Z,969.00
2023-05-02T10:56:16.294Z,967.00
2023-05-02T10:57:16.347Z,962.00
2023-05-02T10:58:16.335Z,963.00
2023-05-02T10:59:16.336Z,965.00
2023-05-02T11:00:16.345Z,963.00
2023-05-02T11:01:16.373Z,965.00
2023-05-02T11:02:16.393Z,966.00
2023-05-02T11:03:16.486Z,966.00
2023-05-02T11:04:16.377Z,964.00
2023-05-02T11:05:16.409Z,960.00
2023-05-02T11:06:16.499Z,957.00
2023-05-02T11:07:16.391Z,955.00
2023-05-02T11:08:17.164Z,953.00
2023-05-02T11:09:16.476Z,950.00
2023-05-02T11:10:16.453Z,944.00
2023-05-02T11:11:16.496Z,944.00
2023-05-02T11:12:16.500Z,942.00
2023-05-02T11:13:16.513Z,943.00
2023-05-02T11:14:17.597Z,943.00
2023-05-02T11:15:16.525Z,940.00
2023-05-02T11:16:16.568Z,937.00
2023-05-02T11:17:16.540Z,934.00
2023-05-02T11:18:16.623Z,934.00
2023-05-02T11:19:16.566Z,933.00
2023-05-02T11:20:16.558Z,930.00
2023-05-02T11:21:16.810Z,930.00
2023-05-02T11:22:16.620Z,931.00
2023-05-02T11:23:16.677Z,929.00
2023-05-02T11:24:16.825Z,924.00
2023-05-02T11:25:17.312Z,922.00
2023-05-02T11:26:16.688Z,921.00
2023-05-02T11:27:16.759Z,918.00
2023-05-02T11:28:16.620Z,916.00
2023-05-02T11:29:16.627Z,914.00
2023-05-02T11:30:16.717Z,912.00
2023-05-02T11:31:16.626Z,910.00
2023-05-02T11:32:16.683Z,909.00
2023-05-02T11:33:16.706Z,908.00
2023-05-02T11:34:16.703Z,907.00
2023-05-02T11:35:16.686Z,905.00
2023-05-02T11:36:16.725Z,901.00
2023-05-02T11:37:16.789Z,897.00
2023-05-02T11:38:16.709Z,895.00
2023-05-02T11:39:16.734Z,892.00
2023-05-02T11:40:16.728Z,889.00
2023-05-02T11:41:16.741Z,889.00
2023-05-02T11:42:16.748Z,887.00
2023-05-02T11:43:16.749Z,886.00
2023-05-02T11:44:16.772Z,885.00
2023-05-02T11:45:16.855Z,882.00
2023-05-02T11:46:16.843Z,881.00
2023-05-02T11:47:16.763Z,881.00
2023-05-02T11:48:16.896Z,882.00
2023-05-02T11:49:16.801Z,877.00
2023-05-02T11:50:16.808Z,875.00
2023-05-02T11:51:16.831Z,872.00
2023-05-02T11:52:16.803Z,868.00
2023-05-02T11:53:16.825Z,864.00
2023-05-02T11:54:16.877Z,859.00
2023-05-02T11:55:16.850Z,859.00
2023-05-02T11:56:16.864Z,856.00
2023-05-02T11:57:16.853Z,857.00
2023-05-02T11:58:16.827Z,858.00
2023-05-02T11:59:16.888Z,852.00
2023-05-02T12:00:16.883Z,851.00
2023-05-02T12:01:16.868Z,851.00
2023-05-02T12:02:16.859Z,848.00
2023-05-02T12:03:17.040Z,846.00
2023-05-02T12:04:16.866Z,847.00
2023-05-02T12:05:16.884Z,845.00
2023-05-02T12:06:16.908Z,844.00
2023-05-02T12:07:16.940Z,842.00
2023-05-02T12:08:16.836Z,839.00
2023-05-02T12:09:16.930Z,838.00
2023-05-02T12:10:16.885Z,839.00
2023-05-02T12:11:17.056Z,838.00
2023-05-02T12:12:16.897Z,837.00
2023-05-02T12:13:16.933Z,836.00
2023-05-02T12:14:17.030Z,836.00
2023-05-02T12:15:16.888Z,837.00
2023-05-02T12:16:17.069Z,833.00
2023-05-02T12:17:16.941Z,833.00
2023-05-02T12:18:16.946Z,829.00
2023-05-02T12:19:17.056Z,829.00
2023-05-02T12:20:17.300Z,828.00
2023-05-02T12:21:16.928Z,827.00